createdAt,value
2023-02-02T00:00:12.835Z,94842.44
2023-02-02T00:02:39.346Z,94838.00
2023-02-02T00:05:05.919Z,94833.38
2023-02-02T00:07:32.352Z,94827.38
2023-02-02T00:09:58.865Z,94830.78
2023-02-02T00:12:25.353Z,94829.53
2023-02-02T00:14:51.759Z,94832.31
2023-02-02T00:17:18.191Z,94831.97
2023-02-02T00:19:46.794Z,94830.00
2023-02-02T00:22:13.299Z,94827.53
2023-02-02T00:24:39.844Z,94831.47
2023-02-02T00:27:06.273Z,94820.00
2023-02-02T00:29:32.824Z,94820.25
2023-02-02T00:31:59.353Z,94819.56
2023-02-02T00:34:26.004Z,94808.22
2023-02-02T00:36:52.515Z,94808.03
2023-02-02T00:39:23.160Z,94811.09
2023-02-02T00:41:49.590Z,94809.75
2023-02-02T00:44:34.675Z,94801.34
2023-02-02T00:47:01.179Z,94804.22
2023-02-02T00:49:27.618Z,94805.47
2023-02-02T00:51:54.155Z,94800.31
2023-02-02T00:54:20.606Z,94799.13
2023-02-02T00:56:47.062Z,94805.16
2023-02-02T00:59:13.501Z,94799.13
2023-02-02T01:01:39.992Z,94805.91
2023-02-02T01:04:06.921Z,94803.75
2023-02-02T01:06:33.421Z,94797.38
2023-02-02T01:08:59.890Z,94787.00
2023-02-02T01:11:26.344Z,94776.16
2023-02-02T01:13:52.844Z,94775.53
2023-02-02T01:16:19.339Z,94775.19
2023-02-02T01:18:45.799Z,94778.84
2023-02-02T01:21:12.663Z,94781.88
2023-02-02T01:23:39.331Z,94770.00
2023-02-02T01:26:07.960Z,94775.44
2023-02-02T01:28:35.000Z,94771.63
2023-02-02T01:31:06.424Z,94775.06
2023-02-02T01:33:32.900Z,94772.44
2023-02-02T01:36:02.773Z,94766.59
2023-02-02T01:38:29.214Z,94766.19
2023-02-02T01:40:56.356Z,94761.78
2023-02-02T01:43:25.633Z,94756.56
2023-02-02T01:45:52.690Z,94761.88
2023-02-02T01:48:21.686Z,94760.84
2023-02-02T01:50:49.962Z,94758.81
2023-02-02T01:53:19.805Z,94750.78
2023-02-02T01:55:48.136Z,94757.63
2023-02-02T01:58:17.945Z,94747.91
2023-02-02T02:00:46.943Z,94759.34
2023-02-02T02:03:18.856Z,94764.03
2023-02-02T02:05:48.509Z,94758.75
2023-02-02T02:08:22.412Z,94761.97
2023-02-02T02:10:49.129Z,94764.81
2023-02-02T02:13:16.198Z,94770.50
2023-02-02T02:16:16.622Z,94768.69
2023-02-02T02:18:51.907Z,94763.28
2023-02-02T02:21:56.910Z,94766.09
2023-02-02T02:25:00.825Z,94768.06
2023-02-02T02:27:36.478Z,94780.94
2023-02-02T02:30:07.335Z,94777.88
2023-02-02T02:32:40.243Z,94773.72
2023-02-02T02:35:12.841Z,94774.75
2023-02-02T02:37:49.659Z,94770.94
2023-02-02T02:40:16.383Z,94769.31
2023-02-02T02:42:46.027Z,94774.56
2023-02-02T02:45:13.208Z,94774.13
2023-02-02T02:47:41.252Z,94777.88
2023-02-02T02:50:07.965Z,94782.97
2023-02-02T02:52:35.165Z,94793.94
2023-02-02T02:55:02.252Z,94792.63
2023-02-02T02:57:34.907Z,94795.16
2023-02-02T03:00:21.589Z,94799.03
2023-02-02T03:02:52.885Z,94799.53
2023-02-02T03:05:19.347Z,94807.19
2023-02-02T03:07:50.137Z,94809.38
2023-02-02T03:10:19.539Z,94807.56
2023-02-02T03:12:50.507Z,94811.06
2023-02-02T03:15:17.489Z,94807.63
2023-02-02T03:17:44.833Z,94817.09
2023-02-02T03:20:11.734Z,94810.88
2023-02-02T03:22:38.197Z,94815.91
2023-02-02T03:25:05.107Z,94821.16
2023-02-02T03:27:32.197Z,94820.78
2023-02-02T03:29:58.887Z,94816.81
2023-02-02T03:32:25.510Z,94821.22
2023-02-02T03:34:51.949Z,94823.44
2023-02-02T03:37:18.428Z,94825.28
2023-02-02T03:39:44.859Z,94824.66
2023-02-02T03:42:11.286Z,94824.00
2023-02-02T03:44:37.745Z,94818.97
2023-02-02T03:47:04.173Z,94828.03
2023-02-02T03:49:30.601Z,94816.19
2023-02-02T03:51:57.073Z,94817.44
2023-02-02T03:54:23.552Z,94827.06
2023-02-02T03:56:50.020Z,94834.53
2023-02-02T03:59:16.476Z,94834.16
2023-02-02T04:01:42.937Z,94836.16
2023-02-02T04:04:09.367Z,94829.31
2023-02-02T04:06:35.934Z,94835.78
2023-02-02T04:09:02.356Z,94835.34
2023-02-02T04:11:28.833Z,94841.41
2023-02-02T04:13:55.299Z,94841.13
2023-02-02T04:16:21.780Z,94853.47
2023-02-02T04:18:48.248Z,94855.88
2023-02-02T04:21:14.734Z,94847.41
2023-02-02T04:23:41.207Z,94858.25
2023-02-02T04:26:07.672Z,94853.47
2023-02-02T04:28:34.107Z,94864.91
2023-02-02T04:31:00.590Z,94861.03
2023-02-02T04:33:28.060Z,94874.56
2023-02-02T04:35:54.593Z,94861.69
2023-02-02T04:38:21.075Z,94869.97
2023-02-02T04:40:48.020Z,94860.97
2023-02-02T04:43:14.495Z,94870.41
2023-02-02T04:45:42.335Z,94872.66
2023-02-02T04:48:09.239Z,94878.72
2023-02-02T04:50:35.687Z,94884.75
2023-02-02T04:53:02.925Z,94892.03
2023-02-02T04:55:29.349Z,94908.00
2023-02-02T04:57:55.796Z,94901.59
2023-02-02T05:00:22.461Z,94894.38
2023-02-02T05:02:48.991Z,94901.50
2023-02-02T05:05:15.556Z,94907.53
2023-02-02T05:07:42.239Z,94913.69
2023-02-02T05:10:09.706Z,94926.50
2023-02-02T05:12:36.128Z,94919.88
2023-02-02T05:15:03.615Z,94934.22
2023-02-02T05:17:30.133Z,94929.38
2023-02-02T05:19:56.771Z,94926.56
2023-02-02T05:22:23.226Z,94932.50
2023-02-02T05:24:49.737Z,94937.47
2023-02-02T05:27:16.158Z,94934.66
2023-02-02T05:29:42.661Z,94942.69
2023-02-02T05:32:09.211Z,94930.25
2023-02-02T05:34:35.696Z,94930.59
2023-02-02T05:37:02.124Z,94937.03
2023-02-02T05:39:28.578Z,94943.41
2023-02-02T05:41:54.994Z,94936.56
2023-02-02T05:44:21.440Z,94942.63
2023-02-02T05:46:47.862Z,94941.78
2023-02-02T05:49:14.563Z,94953.34
2023-02-02T05:51:43.828Z,94954.50
2023-02-02T05:54:10.281Z,94942.25
2023-02-02T05:56:36.740Z,94951.06
2023-02-02T05:59:07.399Z,94948.56
2023-02-02T06:01:34.365Z,94943.16
2023-02-02T06:04:00.910Z,94947.09
2023-02-02T06:06:27.691Z,94941.06
2023-02-02T06:08:54.181Z,94944.31
2023-02-02T06:11:20.619Z,94954.31
2023-02-02T06:13:47.120Z,94956.47
2023-02-02T06:16:13.615Z,94951.06
2023-02-02T06:18:40.516Z,94940.25
2023-02-02T06:21:07.085Z,94949.09
2023-02-02T06:23:34.018Z,94945.84
2023-02-02T06:26:00.710Z,94952.69
2023-02-02T06:28:27.192Z,94951.63
2023-02-02T06:30:53.689Z,94955.56
2023-02-02T06:33:20.154Z,94959.44
2023-02-02T06:35:46.610Z,94966.66
2023-02-02T06:38:13.129Z,94962.44
2023-02-02T06:40:39.546Z,94951.81
2023-02-02T06:43:06.135Z,94959.09
2023-02-02T06:45:32.610Z,94952.31
2023-02-02T06:48:03.487Z,94952.16
2023-02-02T06:50:30.122Z,94956.09
2023-02-02T06:52:56.565Z,94955.84
2023-02-02T06:55:23.319Z,94965.75
2023-02-02T06:57:55.837Z,94958.38
2023-02-02T07:00:22.330Z,94957.38
2023-02-02T07:02:48.997Z,94956.72
2023-02-02T07:05:15.470Z,94962.34
2023-02-02T07:07:41.918Z,94964.31
2023-02-02T07:10:08.715Z,94979.63
2023-02-02T07:12:55.106Z,94975.66
2023-02-02T07:15:22.450Z,94976.94
2023-02-02T07:17:49.119Z,94974.13
2023-02-02T07:20:15.761Z,94970.19
2023-02-02T07:22:42.185Z,94977.03
2023-02-02T07:25:08.705Z,94977.56
2023-02-02T07:27:35.246Z,94973.94
2023-02-02T07:30:02.289Z,94974.59
2023-02-02T07:32:28.746Z,94975.22
2023-02-02T07:34:55.177Z,94968.34
2023-02-02T07:37:21.780Z,94969.00
2023-02-02T07:39:48.261Z,94971.78
2023-02-02T07:42:14.700Z,94961.34
2023-02-02T07:44:41.154Z,94959.53
2023-02-02T07:47:07.603Z,94967.56
2023-02-02T07:49:34.072Z,94955.66
2023-02-02T07:52:00.529Z,94954.50
2023-02-02T07:54:26.966Z,94957.00
2023-02-02T07:56:53.494Z,94954.19
2023-02-02T07:59:19.926Z,94946.34
2023-02-02T08:01:46.562Z,94949.22
2023-02-02T08:04:13.094Z,94952.56
2023-02-02T08:06:40.023Z,94952.84
2023-02-02T08:09:10.138Z,94942.19
2023-02-02T08:11:37.242Z,94949.13
2023-02-02T08:14:04.521Z,94943.34
2023-02-02T08:16:31.805Z,94943.50
2023-02-02T08:18:58.863Z,94941.53
2023-02-02T08:21:25.589Z,94935.13
2023-02-02T08:23:53.009Z,94934.75
2023-02-02T08:26:22.161Z,94943.03
2023-02-02T08:28:49.766Z,94935.91
2023-02-02T08:31:18.064Z,94946.38
2023-02-02T08:33:44.927Z,94946.03
2023-02-02T08:36:15.382Z,94936.28
2023-02-02T08:38:41.884Z,94946.03
2023-02-02T08:41:09.381Z,94941.00
2023-02-02T08:43:35.924Z,94942.78
2023-02-02T08:46:05.532Z,94950.69
2023-02-02T08:48:32.261Z,94947.34
2023-02-02T08:50:59.165Z,94943.75
2023-02-02T08:53:26.006Z,94954.78
2023-02-02T08:55:59.967Z,94952.22
2023-02-02T08:58:26.741Z,94946.53
2023-02-02T09:00:53.416Z,94953.75
2023-02-02T09:03:19.855Z,94953.75
2023-02-02T09:05:46.485Z,94950.50
2023-02-02T09:08:12.949Z,94957.38
2023-02-02T09:10:39.456Z,94967.22
2023-02-02T09:13:05.893Z,94967.66
2023-02-02T09:15:32.925Z,94974.13
2023-02-02T09:17:59.364Z,94966.03
2023-02-02T09:20:25.806Z,94963.84
2023-02-02T09:22:54.858Z,94969.06
2023-02-02T09:25:21.485Z,94973.94
2023-02-02T09:27:47.922Z,94983.16
2023-02-02T09:30:14.570Z,94986.41
2023-02-02T09:32:41.024Z,94979.16
2023-02-02T09:35:07.675Z,94976.22
2023-02-02T09:37:35.014Z,94977.38
2023-02-02T09:40:01.564Z,94978.63
2023-02-02T09:42:30.887Z,94969.59
2023-02-02T09:45:08.196Z,94965.38
2023-02-02T09:47:34.616Z,94964.59
2023-02-02T09:50:01.042Z,94952.78
2023-02-02T09:52:47.892Z,94971.72
2023-02-02T09:55:26.703Z,94965.50
2023-02-02T09:57:56.436Z,94971.34
2023-02-02T10:00:33.994Z,94971.78
2023-02-02T10:03:26.659Z,94983.09
2023-02-02T10:06:01.413Z,94968.16
2023-02-02T10:08:34.952Z,94977.47
2023-02-02T10:11:14.091Z,94980.09
2023-02-02T10:13:43.665Z,94979.47
2023-02-02T10:16:17.369Z,94969.44
2023-02-02T10:18:55.842Z,94969.88
2023-02-02T10:21:41.241Z,94970.50
2023-02-02T10:24:18.724Z,94977.09
2023-02-02T10:26:56.223Z,94973.47
2023-02-02T10:29:22.707Z,94976.72
2023-02-02T10:31:58.614Z,94969.44
2023-02-02T10:34:40.203Z,94960.94
2023-02-02T10:37:06.717Z,94967.25
2023-02-02T10:39:56.238Z,94965.44
2023-02-02T10:42:40.500Z,94974.09
2023-02-02T10:45:15.927Z,94981.94
2023-02-02T10:47:42.492Z,94982.31
2023-02-02T10:50:19.541Z,94971.84
2023-02-02T10:52:56.377Z,94973.47
2023-02-02T10:55:33.085Z,94969.88
2023-02-02T10:58:02.507Z,94971.84
2023-02-02T11:00:43.613Z,94964.19
2023-02-02T11:03:11.403Z,94966.25
2023-02-02T11:05:56.566Z,94972.09
2023-02-02T11:08:22.960Z,94960.56
2023-02-02T11:10:52.052Z,94962.59
2023-02-02T11:13:38.707Z,94966.00
2023-02-02T11:16:14.442Z,94961.13
2023-02-02T11:18:43.938Z,94956.91
2023-02-02T11:21:27.361Z,94956.16
2023-02-02T11:23:53.783Z,94961.81
2023-02-02T11:26:20.398Z,94948.78
2023-02-02T11:28:49.137Z,94951.84
2023-02-02T11:31:51.202Z,94949.41
2023-02-02T11:34:20.685Z,94949.41
2023-02-02T11:37:13.435Z,94947.44
2023-02-02T11:39:43.911Z,94957.41
2023-02-02T11:42:16.203Z,94956.59
2023-02-02T11:44:50.124Z,94949.19
2023-02-02T11:47:21.751Z,94950.19
2023-02-02T11:49:49.724Z,94950.53
2023-02-02T11:52:18.557Z,94953.78
2023-02-02T11:54:50.085Z,94958.13
2023-02-02T11:57:18.943Z,94957.69
2023-02-02T11:59:45.658Z,94957.25
2023-02-02T12:02:32.079Z,94950.84
2023-02-02T12:05:10.466Z,94953.66
2023-02-02T12:07:37.587Z,94952.41
2023-02-02T12:10:13.582Z,94962.50
2023-02-02T12:12:40.131Z,94963.94
2023-02-02T12:15:25.218Z,94975.81
2023-02-02T12:17:55.965Z,94961.91
2023-02-02T12:20:34.853Z,94960.31
2023-02-02T12:23:19.999Z,94967.72
2023-02-02T12:26:05.340Z,94969.38
2023-02-02T12:28:39.536Z,94970.78
2023-02-02T12:31:29.039Z,94957.69
2023-02-02T12:34:09.992Z,94972.63
2023-02-02T12:36:43.817Z,94968.75
2023-02-02T12:39:25.572Z,94974.09
2023-02-02T12:42:10.775Z,94974.63
2023-02-02T12:44:37.195Z,94976.28
2023-02-02T12:47:12.133Z,94990.53
2023-02-02T12:49:57.602Z,94981.19
2023-02-02T12:52:33.195Z,94984.06
2023-02-02T12:55:03.415Z,94984.91
2023-02-02T12:57:50.402Z,94986.19
2023-02-02T13:00:26.414Z,94992.84
2023-02-02T13:03:13.257Z,94992.22
2023-02-02T13:08:37.937Z,94986.19
2023-02-02T13:11:08.332Z,94992.84
2023-02-02T13:13:37.923Z,94997.84
2023-02-02T13:16:11.633Z,94996.38
2023-02-02T13:18:42.569Z,94993.69
2023-02-02T13:21:12.470Z,94994.78
2023-02-02T13:23:52.834Z,95011.38
2023-02-02T13:26:21.237Z,95019.72
2023-02-02T13:28:47.800Z,95007.97
2023-02-02T13:31:18.623Z,95022.84
2023-02-02T13:33:48.435Z,95021.25
2023-02-02T13:36:19.441Z,95019.19
2023-02-02T13:38:46.046Z,95025.50
2023-02-02T13:41:13.587Z,95029.53
2023-02-02T13:43:46.151Z,95034.78
2023-02-02T13:46:12.668Z,95018.38
2023-02-02T13:48:48.087Z,95044.53
2023-02-02T13:51:20.268Z,95040.25
2023-02-02T13:54:05.643Z,95053.34
2023-02-02T13:56:51.033Z,95072.47
2023-02-02T13:59:40.228Z,95055.97
2023-02-02T14:02:20.710Z,95065.19
2023-02-02T14:04:53.126Z,95073.94
2023-02-02T14:07:26.191Z,95094.66
2023-02-02T14:09:52.704Z,95069.22
2023-02-02T14:12:27.668Z,95090.97
2023-02-02T14:14:54.376Z,95089.81
2023-02-02T14:17:23.597Z,95091.34
2023-02-02T14:19:51.674Z,95091.78
2023-02-02T14:22:19.810Z,95106.91
2023-02-02T14:24:54.071Z,95098.44
2023-02-02T14:27:43.591Z,95102.44
2023-02-02T14:30:21.355Z,95092.56
2023-02-02T14:32:47.863Z,95103.22
2023-02-02T14:35:14.986Z,95110.88
2023-02-02T14:37:41.422Z,95113.84
2023-02-02T14:40:10.541Z,95109.28
2023-02-02T14:43:08.053Z,95110.19
2023-02-02T14:45:39.398Z,95108.19
2023-02-02T14:48:05.963Z,95124.88
2023-02-02T14:50:38.577Z,95135.97
2023-02-02T14:53:05.000Z,95144.88
2023-02-02T14:55:31.522Z,95141.47
2023-02-02T14:58:04.837Z,95174.00
2023-02-02T15:00:32.902Z,95158.69
2023-02-02T15:03:18.439Z,95159.97
2023-02-02T15:05:46.194Z,95151.19
2023-02-02T15:08:24.202Z,95154.00
2023-02-02T15:10:53.691Z,95164.72
2023-02-02T15:13:29.309Z,95165.00
2023-02-02T15:16:04.846Z,95175.09
2023-02-02T15:18:38.497Z,95174.66
2023-02-02T15:21:06.673Z,95175.28
2023-02-02T15:23:33.126Z,95182.34
2023-02-02T15:26:01.207Z,95175.28
2023-02-02T15:28:43.466Z,95190.91
2023-02-02T15:31:25.331Z,95189.19
2023-02-02T15:33:54.679Z,95200.94
2023-02-02T15:36:26.686Z,95212.72
2023-02-02T15:38:56.459Z,95218.97
2023-02-02T15:41:33.535Z,95219.94
2023-02-02T15:44:00.568Z,95228.97
2023-02-02T15:46:35.741Z,95226.97
2023-02-02T15:49:33.647Z,95212.91
2023-02-02T15:52:03.287Z,95220.31
2023-02-02T15:54:35.236Z,95245.00
2023-02-02T15:57:09.047Z,95241.78
2023-02-02T15:59:40.096Z,95245.81
2023-02-02T16:02:06.552Z,95244.22
2023-02-02T16:04:37.425Z,95241.59
2023-02-02T16:07:05.555Z,95256.56
2023-02-02T16:09:35.797Z,95257.19
2023-02-02T16:12:04.203Z,95264.78
2023-02-02T16:14:32.327Z,95266.06
2023-02-02T16:17:10.177Z,95275.50
2023-02-02T16:19:36.954Z,95273.25
2023-02-02T16:22:06.074Z,95266.66
2023-02-02T16:24:37.187Z,95289.25
2023-02-02T16:27:05.935Z,95306.81
2023-02-02T16:29:32.946Z,95299.06
2023-02-02T16:31:59.661Z,95314.56
2023-02-02T16:34:41.551Z,95314.19
2023-02-02T16:37:13.210Z,95304.97
2023-02-02T16:39:39.686Z,95332.41
2023-02-02T16:42:23.143Z,95331.47
2023-02-02T16:44:49.889Z,95341.16
2023-02-02T16:47:25.266Z,95339.97
2023-02-02T16:50:07.668Z,95317.94
2023-02-02T16:53:12.781Z,95346.53
2023-02-02T16:55:50.664Z,95344.75
2023-02-02T16:58:19.908Z,95349.50
2023-02-02T17:01:13.520Z,95369.66
2023-02-02T17:03:45.879Z,95369.50
2023-02-02T17:06:12.392Z,95389.63
2023-02-02T17:08:39.574Z,95374.06
2023-02-02T17:11:18.285Z,95390.03
2023-02-02T17:13:44.736Z,95395.56
2023-02-02T17:16:13.811Z,95391.94
2023-02-02T17:18:40.455Z,95401.75
2023-02-02T17:21:07.762Z,95387.91
2023-02-02T17:23:39.567Z,95397.88
2023-02-02T17:26:07.552Z,95405.44
2023-02-02T17:28:34.200Z,95414.25
2023-02-02T17:31:02.172Z,95422.09
2023-02-02T17:33:29.187Z,95414.91
2023-02-02T17:35:56.609Z,95418.22
2023-02-02T17:38:24.044Z,95428.69
2023-02-02T17:40:51.083Z,95428.41
2023-02-02T17:43:17.525Z,95434.94
2023-02-02T17:45:44.079Z,95448.72
2023-02-02T17:48:12.182Z,95441.88
2023-02-02T17:50:38.925Z,95458.03
2023-02-02T17:53:05.578Z,95461.78
2023-02-02T17:55:33.370Z,95457.22
2023-02-02T17:58:00.068Z,95493.34
2023-02-02T18:00:28.648Z,95469.16
2023-02-02T18:03:01.380Z,95465.41
2023-02-02T18:05:28.114Z,95469.84
2023-02-02T18:07:55.033Z,95490.59
2023-02-02T18:10:26.296Z,95486.53
2023-02-02T18:12:52.987Z,95501.91
2023-02-02T18:15:19.435Z,95492.59
2023-02-02T18:17:45.848Z,95490.28
2023-02-02T18:20:14.098Z,95517.25
2023-02-02T18:22:40.881Z,95506.28
2023-02-02T18:25:07.588Z,95506.13
2023-02-02T18:27:34.015Z,95540.94
2023-02-02T18:30:00.585Z,95533.88
2023-02-02T18:32:27.038Z,95531.44
2023-02-02T18:34:55.881Z,95538.94
2023-02-02T18:37:23.148Z,95546.47
2023-02-02T18:39:49.632Z,95533.75
2023-02-02T18:42:16.117Z,95532.09
2023-02-02T18:44:42.767Z,95530.13
2023-02-02T18:47:09.254Z,95549.41
2023-02-02T18:49:35.704Z,95549.09
2023-02-02T18:52:02.803Z,95559.53
2023-02-02T18:54:29.522Z,95557.41
2023-02-02T18:56:56.009Z,95567.56
2023-02-02T18:59:22.566Z,95567.56
2023-02-02T19:01:49.033Z,95583.22
2023-02-02T19:04:15.560Z,95571.81
2023-02-02T19:07:00.995Z,95566.75
2023-02-02T19:09:27.433Z,95586.03
2023-02-02T19:11:54.908Z,95578.19
2023-02-02T19:14:24.655Z,95606.63
2023-02-02T19:16:52.617Z,95598.78
2023-02-02T19:19:19.040Z,95600.09
2023-02-02T19:21:46.172Z,95630.47
2023-02-02T19:24:13.130Z,95602.53
2023-02-02T19:26:45.959Z,95612.00
2023-02-02T19:29:18.433Z,95621.97
2023-02-02T19:31:45.031Z,95619.69
2023-02-02T19:34:13.123Z,95630.94
2023-02-02T19:36:45.498Z,95632.75
2023-02-02T19:39:14.807Z,95629.97
2023-02-02T19:41:42.933Z,95628.53
2023-02-02T19:44:13.891Z,95629.16
2023-02-02T19:46:42.674Z,95633.06
2023-02-02T19:49:18.012Z,95632.09
2023-02-02T19:51:45.855Z,95636.69
2023-02-02T19:54:22.051Z,95648.75
2023-02-02T19:56:49.780Z,95647.59
2023-02-02T19:59:18.371Z,95651.38
2023-02-02T20:01:47.781Z,95656.28
2023-02-02T20:04:19.389Z,95651.84
2023-02-02T20:06:58.714Z,95664.75
2023-02-02T20:09:29.848Z,95673.56
2023-02-02T20:11:56.725Z,95682.56
2023-02-02T20:14:28.532Z,95671.63
2023-02-02T20:17:04.966Z,95686.63
2023-02-02T20:19:37.201Z,95673.91
2023-02-02T20:22:03.866Z,95683.03
2023-02-02T20:24:37.578Z,95686.63
2023-02-02T20:27:16.707Z,95694.47
2023-02-02T20:29:45.183Z,95712.44
2023-02-02T20:32:18.214Z,95709.16
2023-02-02T20:34:45.103Z,95727.25
2023-02-02T20:37:17.645Z,95724.16
2023-02-02T20:39:49.919Z,95727.69
2023-02-02T20:42:16.357Z,95722.81
2023-02-02T20:44:43.250Z,95722.81
2023-02-02T20:47:09.966Z,95733.59
2023-02-02T20:49:37.046Z,95728.56
2023-02-02T20:52:07.889Z,95732.66
2023-02-02T20:54:34.490Z,95732.16
2023-02-02T20:57:02.148Z,95750.09
2023-02-02T20:59:28.632Z,95744.38
2023-02-02T21:01:55.065Z,95746.34
2023-02-02T21:04:22.018Z,95747.81
2023-02-02T21:06:49.262Z,95744.22
2023-02-02T21:09:16.149Z,95750.44
2023-02-02T21:11:42.820Z,95748.63
2023-02-02T21:14:09.342Z,95756.16
2023-02-02T21:16:36.726Z,95753.84
2023-02-02T21:19:03.295Z,95759.06
2023-02-02T21:21:30.007Z,95767.88
2023-02-02T21:23:56.665Z,95774.41
2023-02-02T21:26:27.254Z,95773.53
2023-02-02T21:28:53.994Z,95798.03
2023-02-02T21:31:20.504Z,95791.03
2023-02-02T21:33:47.841Z,95792.00
2023-02-02T21:36:14.502Z,95790.38
2023-02-02T21:38:40.955Z,95796.84
2023-02-02T21:41:13.762Z,95794.75
2023-02-02T21:43:40.290Z,95802.75
2023-02-02T21:46:20.049Z,95801.41
2023-02-02T21:48:47.951Z,95817.34
2023-02-02T21:51:31.865Z,95816.81
2023-02-02T21:53:58.289Z,95807.66
2023-02-02T21:56:32.254Z,95802.28
2023-02-02T21:59:00.297Z,95832.88
2023-02-02T22:01:34.755Z,95817.25
2023-02-02T22:04:01.437Z,95824.28
2023-02-02T22:06:35.125Z,95813.66
2023-02-02T22:09:14.348Z,95815.63
2023-02-02T22:11:40.776Z,95819.88
2023-02-02T22:14:13.116Z,95823.66
2023-02-02T22:16:43.227Z,95825.59
2023-02-02T22:19:29.906Z,95826.56
2023-02-02T22:22:07.020Z,95830.09
2023-02-02T22:24:33.562Z,95839.94
2023-02-02T22:27:00.228Z,95854.38
2023-02-02T22:29:29.175Z,95854.28
2023-02-02T22:31:55.637Z,95864.59
2023-02-02T22:34:22.184Z,95870.84
2023-02-02T22:36:48.693Z,95867.28
2023-02-02T22:39:15.125Z,95880.56
2023-02-02T22:41:41.609Z,95879.53
2023-02-02T22:44:08.123Z,95885.13
2023-02-02T22:46:34.622Z,95882.16
2023-02-02T22:49:01.136Z,95890.59
2023-02-02T22:51:27.632Z,95885.06
2023-02-02T22:53:54.084Z,95896.84
2023-02-02T22:56:21.576Z,95905.00
2023-02-02T22:58:48.014Z,95913.41
2023-02-02T23:01:15.464Z,95916.38
2023-02-02T23:03:41.979Z,95913.41
2023-02-02T23:06:08.641Z,95916.38
2023-02-02T23:08:35.171Z,95911.09
2023-02-02T23:11:01.693Z,95925.91
2023-02-02T23:13:28.144Z,95904.84
2023-02-02T23:15:56.710Z,95912.19
2023-02-02T23:18:23.283Z,95902.91
2023-02-02T23:20:50.519Z,95915.28
2023-02-02T23:23:17.135Z,95919.34
2023-02-02T23:25:43.575Z,95919.31
2023-02-02T23:28:10.636Z,95929.69
2023-02-02T23:30:37.963Z,95918.72
2023-02-02T23:33:04.411Z,95918.09
2023-02-02T23:35:30.893Z,95929.06
2023-02-02T23:37:57.353Z,95923.13
2023-02-02T23:40:23.857Z,95929.91
2023-02-02T23:42:50.520Z,95936.41
2023-02-02T23:45:16.959Z,95930.56
2023-02-02T23:47:43.664Z,95933.41
2023-02-02T23:50:11.168Z,95937.88
2023-02-02T23:52:37.960Z,95935.94
2023-02-02T23:55:05.015Z,95942.72
2023-02-02T23:57:33.923Z,95945.34
